Time;durP1;ratioP1;P1;durP2;ratioP2;P2;SDS_P1;SDS_P2;PMS_P1;PMS_P2;Temp;Humidity;BMP_temperature;BMP_pressure;BME280_temperature;BME280_humidity;BME280_pressure;Samples;Min_cycle;Max_cycle;Signal;HPM_P1;HPM_P2
2022/06/29 00:00:47;;;;;;;21.80;9.20;;;;;;;20.25;57.60;99205.13;106676;1279;23259;-90
2022/06/29 00:03:16;;;;;;;17.00;9.40;;;;;;;20.25;57.66;99205.44;106470;1277;22490;-89
2022/06/29 00:05:54;;;;;;;23.70;9.80;;;;;;;20.22;57.63;99205.15;106937;1276;22681;-91
2022/06/29 00:08:26;;;;;;;17.20;8.40;;;;;;;20.20;57.79;99199.19;106987;1277;25200;-89
2022/06/29 00:11:07;;;;;;;15.30;6.90;;;;;;;20.19;57.85;99204.25;107370;1276;22705;-88
2022/06/29 00:13:50;;;;;;;12.20;6.10;;;;;;;20.18;57.97;99206.15;106678;1276;24103;-89
2022/06/29 00:17:04;;;;;;;10.00;5.90;;;;;;;20.19;58.09;99207.30;106780;1279;22573;-92
2022/06/29 00:19:24;;;;;;;9.90;5.40;;;;;;;20.20;58.04;99211.23;106411;1276;25332;-87
2022/06/29 00:21:54;;;;;;;13.00;6.00;;;;;;;20.22;58.08;99211.19;106866;1274;23218;-91
2022/06/29 00:24:24;;;;;;;11.10;5.60;;;;;;;20.27;58.33;99210.66;106597;1276;22598;-91
2022/06/29 00:26:56;;;;;;;11.40;5.70;;;;;;;20.32;58.28;99212.09;106519;1274;22554;-89
2022/06/29 00:29:26;;;;;;;12.20;5.60;;;;;;;20.34;58.35;99214.02;106626;1276;24302;-90
2022/06/29 00:31:57;;;;;;;10.00;5.70;;;;;;;20.33;58.24;99216.96;106538;1276;22602;-90
2022/06/29 00:34:30;;;;;;;10.90;5.90;;;;;;;20.31;58.48;99213.02;106935;1274;22608;-88
2022/06/29 00:36:58;;;;;;;13.30;6.30;;;;;;;20.23;58.33;99209.80;106368;1277;23990;-89
2022/06/29 00:39:36;;;;;;;10.60;6.30;;;;;;;20.18;58.57;99208.66;106855;1275;22590;-91
2022/06/29 00:42:04;;;;;;;14.00;6.40;;;;;;;20.15;58.72;99201.83;106571;1277;24245;-90
2022/06/29 00:44:37;;;;;;;12.30;6.10;;;;;;;20.15;58.84;99195.08;106322;1277;24237;-90
2022/06/29 00:47:06;;;;;;;15.50;6.20;;;;;;;20.17;58.62;99195.57;106794;1276;24271;-85
2022/06/29 00:49:46;;;;;;;13.50;6.00;;;;;;;20.22;58.90;99201.91;107201;1276;22699;-90
2022/06/29 00:52:16;;;;;;;11.90;5.70;;;;;;;20.28;59.03;99205.34;106614;1274;25627;-90
2022/06/29 00:54:48;;;;;;;10.50;5.60;;;;;;;20.26;58.90;99212.15;106619;1275;26697;-91
2022/06/29 00:57:18;;;;;;;10.90;5.50;;;;;;;20.29;59.02;99215.16;106473;1277;22575;-91
2022/06/29 00:59:53;;;;;;;11.60;6.10;;;;;;;20.30;59.08;99220.81;106624;1274;25239;-89
2022/06/29 01:02:39;;;;;;;12.10;5.80;;;;;;;20.31;59.27;99229.17;106421;1277;22734;-91
2022/06/29 01:05:09;;;;;;;13.10;6.10;;;;;;;20.33;59.16;99234.39;106481;1274;23925;-90
2022/06/29 01:07:42;;;;;;;11.90;5.80;;;;;;;20.34;59.32;99233.33;106642;1276;25245;-88
2022/06/29 01:10:09;;;;;;;10.90;6.00;;;;;;;20.37;59.23;99229.45;106650;1274;22612;-85
2022/06/29 01:12:36;;;;;;;14.10;5.40;;;;;;;20.39;59.30;99231.38;106296;1276;23072;-90
2022/06/29 01:15:12;;;;;;;10.40;6.00;;;;;;;20.41;59.27;99234.33;106166;1276;24249;-90
2022/06/29 01:17:45;;;;;;;13.90;6.30;;;;;;;20.43;59.63;99233.80;106486;1276;25492;-90
2022/06/29 01:20:17;;;;;;;10.30;6.30;;;;;;;20.45;59.44;99231.95;106816;1275;22559;-89
2022/06/29 01:22:58;;;;;;;10.40;5.90;;;;;;;20.47;59.55;99233.37;106193;1274;22575;-89
2022/06/29 01:25:32;;;;;;;12.60;6.10;;;;;;;20.47;59.72;99232.83;106699;1274;25515;-90
2022/06/29 01:28:07;;;;;;;13.00;5.90;;;;;;;20.45;59.73;99230.48;106764;1274;24244;-90
2022/06/29 01:30:37;;;;;;;17.30;6.10;;;;;;;20.47;59.79;99222.05;106381;1276;24214;-90
2022/06/29 01:33:07;;;;;;;10.00;5.80;;;;;;;20.50;59.80;99219.11;106328;1278;25261;-90
2022/06/29 01:35:39;;;;;;;18.70;6.20;;;;;;;20.54;59.94;99216.21;106477;1277;24205;-89
2022/06/29 01:38:09;;;;;;;12.90;5.90;;;;;;;20.54;59.91;99213.63;106996;1274;22549;-90
2022/06/29 01:40:37;;;;;;;14.00;6.60;;;;;;;20.54;59.90;99214.71;106173;1277;25690;-90
2022/06/29 01:43:10;;;;;;;14.60;6.50;;;;;;;20.54;59.90;99211.46;106297;1276;25910;-89
2022/06/29 01:45:37;;;;;;;14.40;6.20;;;;;;;20.55;60.09;99211.73;106334;1276;26488;-88
2022/06/29 01:48:07;;;;;;;13.00;6.70;;;;;;;20.53;60.04;99214.79;106206;1276;22531;-91
2022/06/29 01:50:37;;;;;;;11.90;6.70;;;;;;;20.40;59.94;99218.27;106028;1276;24203;-91
2022/06/29 01:53:10;;;;;;;12.10;6.10;;;;;;;20.21;60.02;99221.40;105812;1278;22530;-88
2022/06/29 01:55:49;;;;;;;11.40;6.50;;;;;;;20.05;60.22;99217.20;106086;1276;25302;-88
2022/06/29 01:58:19;;;;;;;11.50;6.40;;;;;;;19.94;60.48;99212.17;106219;1275;22581;-92
2022/06/29 02:00:46;;;;;;;10.70;5.80;;;;;;;19.93;60.36;99208.58;106129;1277;22579;-88
2022/06/29 02:03:16;;;;;;;12.00;5.50;;;;;;;19.97;60.59;99204.90;105948;1274;22614;-92
2022/06/29 02:05:43;;;;;;;13.00;6.20;;;;;;;20.04;60.87;99207.79;106167;1274;23198;-89
2022/06/29 02:08:18;;;;;;;11.20;6.80;;;;;;;20.08;60.79;99205.27;105947;1277;25266;-88
2022/06/29 02:10:45;;;;;;;11.40;5.50;;;;;;;20.09;60.80;99198.27;106826;1276;23236;-92
2022/06/29 02:13:20;;;;;;;10.60;5.80;;;;;;;20.06;60.63;99193.39;106113;1278;22591;-90
2022/06/29 02:15:53;;;;;;;11.70;5.90;;;;;;;20.04;60.79;99188.17;106357;1277;22569;-90
2022/06/29 02:18:23;;;;;;;10.40;5.50;;;;;;;20.05;60.87;99189.56;106501;1276;25361;-87
2022/06/29 02:20:56;;;;;;;10.10;5.30;;;;;;;20.05;60.86;99186.83;106348;1277;22546;-91
2022/06/29 02:23:29;;;;;;;12.70;6.80;;;;;;;20.07;60.93;99188.07;106272;1277;23820;-91
2022/06/29 02:26:03;;;;;;;22.20;10.40;;;;;;;20.06;60.90;99191.98;106134;1277;24718;-90
2022/06/29 02:28:30;;;;;;;19.90;13.40;;;;;;;20.02;60.85;99196.87;105896;1278;22547;-92
2022/06/29 02:37:06;;;;;;;;;;;;;;;;;;;;;
2022/06/29 02:39:47;;;;;;;10.40;5.50;;;;;;;20.08;61.31;99181.46;106498;1277;22567;-91
2022/06/29 02:42:15;;;;;;;13.40;6.40;;;;;;;20.09;61.35;99178.58;106407;1274;25242;-91
2022/06/29 02:44:50;;;;;;;12.30;5.90;;;;;;;20.09;61.35;99178.64;106505;1277;25563;-91
2022/06/29 02:47:30;;;;;;;13.80;5.30;;;;;;;20.08;61.32;99172.95;106059;1278;26195;-89
2022/06/29 02:50:02;;;;;;;11.90;5.80;;;;;;;20.07;61.45;99180.11;106248;1278;25558;-89
2022/06/29 02:52:34;;;;;;;16.20;6.30;;;;;;;20.05;61.61;99179.95;106113;1277;22709;-90
2022/06/29 02:55:11;;;;;;;14.90;5.60;;;;;;;20.05;61.60;99179.46;106535;1277;25447;-89
2022/06/29 02:58:01;;;;;;;14.00;6.00;;;;;;;20.08;61.71;99179.13;106199;1277;24350;-89
2022/06/29 03:00:44;;;;;;;15.80;6.80;;;;;;;20.09;61.64;99186.77;106270;1277;24272;-91
2022/06/29 03:03:27;;;;;;;17.70;7.80;;;;;;;20.10;61.77;99186.61;105983;1278;22536;-90
2022/06/29 03:05:58;;;;;;;30.80;13.40;;;;;;;20.13;61.84;99181.73;106758;1276;22528;-89
2022/06/29 03:09:41;;;;;;;34.40;14.40;;;;;;;20.15;61.90;99182.30;105824;1280;24205;-88
2022/06/29 03:12:06;;;;;;;27.70;12.90;;;;;;;20.03;61.71;99182.73;106461;1277;25892;-89
2022/06/29 03:15:02;;;;;;;;;;;;;;;;;;;;;
2022/06/29 03:17:34;;;;;;;18.30;6.70;;;;;;;19.95;62.15;99174.03;106210;1277;22619;-89
2022/06/29 03:20:38;;;;;;;14.70;6.40;;;;;;;19.92;62.12;99177.59;106141;1278;22624;-90
2022/06/29 03:23:24;;;;;;;17.70;6.10;;;;;;;19.94;62.35;99184.63;106444;1275;23106;-90
2022/06/29 03:26:18;;;;;;;19.90;6.10;;;;;;;19.95;62.41;99190.05;106538;1274;22781;-88
2022/06/29 03:28:59;;;;;;;14.40;6.10;;;;;;;19.97;62.46;99194.36;106200;1278;22673;-90
2022/06/29 03:31:37;;;;;;;14.30;5.80;;;;;;;19.98;62.49;99195.38;106667;1275;25717;-88
2022/06/29 03:34:22;;;;;;;12.90;6.00;;;;;;;19.97;62.51;99192.38;106853;1275;22806;-91
2022/06/29 03:37:06;;;;;;;17.30;5.90;;;;;;;19.97;62.57;99187.66;106510;1278;22599;-89
2022/06/29 03:40:06;;;;;;;;;;;;;;;;;;;;;
2022/06/29 03:42:51;;;;;;;12.70;6.30;;;;;;;19.99;62.69;99172.69;106995;1274;24239;-90
2022/06/29 03:45:35;;;;;;;11.30;5.70;;;;;;;20.01;62.74;99172.64;107055;1277;24218;-89
2022/06/29 03:48:15;;;;;;;14.00;5.60;;;;;;;20.01;62.74;99171.02;106949;1275;22541;-90
2022/06/29 03:50:55;;;;;;;14.70;6.70;;;;;;;20.00;62.87;99172.61;106950;1275;22814;-88
2022/06/29 03:53:32;;;;;;;12.90;6.90;;;;;;;19.97;62.82;99174.64;106850;1277;24281;-88
2022/06/29 03:56:02;;;;;;;16.60;7.50;;;;;;;19.94;62.88;99170.80;106433;1275;24277;-91
2022/06/29 03:58:32;;;;;;;13.40;6.50;;;;;;;19.95;62.99;99169.66;106819;1278;22528;-91
2022/06/29 04:01:01;;;;;;;11.00;6.00;;;;;;;19.96;63.13;99170.40;106523;1278;23905;-90
2022/06/29 04:03:31;;;;;;;10.90;5.10;;;;;;;19.96;63.14;99170.23;106960;1274;22825;-91
2022/06/29 04:06:01;;;;;;;11.30;5.50;;;;;;;20.00;63.17;99171.59;106506;1277;22564;-91
2022/06/29 04:08:35;;;;;;;12.10;5.70;;;;;;;20.08;63.35;99173.20;106859;1275;22753;-90
2022/06/29 04:11:48;;;;;;;11.90;5.50;;;;;;;20.11;63.28;99171.20;107134;1275;22760;-90
2022/06/29 04:13:57;;;;;;;11.10;5.40;;;;;;;20.10;63.29;99174.36;106897;1274;25321;-90
2022/06/29 04:16:26;;;;;;;11.20;5.40;;;;;;;20.10;63.24;99174.89;106866;1274;22580;-90
2022/06/29 04:19:00;;;;;;;10.40;5.70;;;;;;;20.03;63.23;99173.66;107061;1274;23993;-90
2022/06/29 04:21:29;;;;;;;11.40;5.40;;;;;;;20.04;63.45;99174.63;106724;1274;22551;-90
2022/06/29 04:23:59;;;;;;;13.70;5.60;;;;;;;20.07;63.44;99173.56;106542;1277;23914;-88
2022/06/29 04:26:31;;;;;;;12.50;5.30;;;;;;;20.09;63.33;99170.60;106953;1274;24023;-91
2022/06/29 04:29:01;;;;;;;11.00;5.20;;;;;;;20.11;63.52;99163.54;106542;1279;25348;-87
2022/06/29 04:31:28;;;;;;;14.10;5.30;;;;;;;20.13;63.59;99159.95;106683;1279;23635;-89
2022/06/29 04:33:58;;;;;;;11.00;5.40;;;;;;;20.17;63.53;99161.67;106550;1274;24274;-90
2022/06/29 04:36:28;;;;;;;11.30;5.00;;;;;;;20.20;63.66;99157.98;106516;1274;24265;-91
2022/06/29 04:38:58;;;;;;;12.10;5.80;;;;;;;20.24;63.61;99157.46;106580;1275;25720;-88
2022/06/29 04:41:32;;;;;;;9.00;4.90;;;;;;;20.29;63.57;99154.25;106674;1275;22678;-92
2022/06/29 04:44:05;;;;;;;10.30;4.90;;;;;;;20.33;63.67;99153.33;106762;1274;22742;-90
2022/06/29 04:46:32;;;;;;;10.50;5.00;;;;;;;20.37;63.74;99157.77;106648;1274;23774;-87
2022/06/29 04:49:01;;;;;;;9.50;5.00;;;;;;;20.38;63.63;99156.29;106945;1274;23169;-90
2022/06/29 04:51:37;;;;;;;10.10;4.70;;;;;;;20.39;63.74;99151.58;106960;1274;22601;-89
2022/06/29 04:54:07;;;;;;;9.60;4.70;;;;;;;20.41;63.96;99145.42;106842;1275;22721;-90
2022/06/29 04:56:52;;;;;;;9.80;5.30;;;;;;;20.42;63.80;99146.00;106726;1274;24240;-90
2022/06/29 04:59:24;;;;;;;11.70;5.50;;;;;;;20.38;63.57;99145.43;106390;1274;24223;-89
2022/06/29 05:01:56;;;;;;;9.00;4.80;;;;;;;20.37;63.88;99158.02;106880;1275;26590;-89
2022/06/29 05:04:27;;;;;;;11.00;4.70;;;;;;;20.35;63.92;99162.77;106263;1275;22620;-90
2022/06/29 05:07:01;;;;;;;12.50;5.20;;;;;;;20.36;63.82;99157.88;106463;1275;24173;-89
2022/06/29 05:09:44;;;;;;;11.10;5.20;;;;;;;20.42;64.04;99154.14;107298;1274;22544;-90
2022/06/29 05:12:20;;;;;;;16.40;7.90;;;;;;;20.44;64.09;99156.83;106468;1275;23956;-89
2022/06/29 05:14:57;;;;;;;14.40;6.20;;;;;;;20.50;64.11;99161.83;106994;1274;22542;-91
2022/06/29 05:17:25;;;;;;;10.70;5.70;;;;;;;20.51;63.93;99160.40;106636;1274;22614;-89
2022/06/29 05:19:52;;;;;;;13.10;5.30;;;;;;;20.51;64.03;99164.44;106711;1274;22721;-88
2022/06/29 05:22:30;;;;;;;19.20;7.20;;;;;;;20.50;63.92;99170.31;106285;1274;25370;-89
2022/06/29 05:24:57;;;;;;;25.10;9.80;;;;;;;20.39;63.79;99173.74;106397;1275;26634;-90
2022/06/29 05:27:30;;;;;;;14.50;7.00;;;;;;;20.28;64.07;99179.30;106469;1274;22741;-90
2022/06/29 05:30:14;;;;;;;20.30;7.20;;;;;;;20.28;64.22;99177.61;106608;1275;22602;-89
2022/06/29 05:32:49;;;;;;;14.50;6.10;;;;;;;20.28;64.27;99178.14;107100;1277;24209;-91
2022/06/29 05:35:24;;;;;;;15.60;6.50;;;;;;;20.28;64.24;99185.80;106786;1274;22567;-88
2022/06/29 05:37:54;;;;;;;12.80;6.20;;;;;;;20.27;64.19;99186.55;106545;1277;22791;-90
2022/06/29 05:40:26;;;;;;;14.00;6.80;;;;;;;20.29;64.41;99186.93;106821;1275;22618;-87
2022/06/29 05:43:01;;;;;;;14.80;6.30;;;;;;;20.29;64.24;99180.20;106832;1275;25907;-89
2022/06/29 05:45:28;;;;;;;13.50;8.20;;;;;;;20.30;64.55;99176.02;107089;1275;22477;-91
2022/06/29 05:47:57;;;;;;;15.90;7.80;;;;;;;20.35;64.55;99175.27;108213;1274;22573;-90
2022/06/29 05:50:30;;;;;;;18.20;7.90;;;;;;;20.40;64.78;99164.64;107407;1277;22561;-89
2022/06/29 05:52:57;;;;;;;17.70;7.30;;;;;;;20.39;64.70;99163.60;107042;1277;22689;-89
2022/06/29 05:55:28;;;;;;;19.10;7.10;;;;;;;20.31;64.85;99165.49;106307;1276;23113;-91
2022/06/29 05:57:55;;;;;;;16.20;7.20;;;;;;;20.22;64.74;99170.89;106853;1273;24203;-90
2022/06/29 06:00:25;;;;;;;20.80;7.10;;;;;;;20.16;64.96;99185.96;106786;1277;25526;-89
2022/06/29 06:02:55;;;;;;;18.30;7.20;;;;;;;20.18;65.09;99194.99;106647;1277;24191;-90
2022/06/29 06:05:24;;;;;;;12.60;7.00;;;;;;;20.15;64.95;99198.05;106351;1276;25224;-87
2022/06/29 06:07:57;;;;;;;17.70;7.30;;;;;;;20.15;65.53;99166.39;106547;1276;22534;-90
2022/06/29 06:10:29;;;;;;;16.90;7.60;;;;;;;20.26;65.49;99113.67;106632;1277;22731;-91
2022/06/29 06:13:05;;;;;;;19.50;8.80;;;;;;;20.29;65.51;99106.95;107616;1277;22671;-91
2022/06/29 06:15:45;;;;;;;23.40;8.60;;;;;;;20.28;65.29;99111.81;107530;1277;22603;-90
2022/06/29 06:18:22;;;;;;;22.00;8.70;;;;;;;20.25;65.37;99099.41;106735;1277;22523;-91
2022/06/29 06:21:02;;;;;;;19.10;7.80;;;;;;;20.24;65.73;99096.67;106725;1276;25357;-88
2022/06/29 06:24:08;;;;;;;17.20;8.00;;;;;;;20.24;65.75;99104.88;106643;1277;25448;-91
2022/06/29 06:27:29;;;;;;;17.00;8.60;;;;;;;20.27;65.76;99099.77;106469;1276;25259;-90
2022/06/29 06:30:05;;;;;;;14.60;8.70;;;;;;;20.30;65.86;99110.11;106627;1276;22749;-89
2022/06/29 06:32:44;;;;;;;14.20;8.90;;;;;;;20.29;65.90;99117.73;106693;1276;25712;-89
2022/06/29 06:35:23;;;;;;;14.00;8.80;;;;;;;20.29;66.04;99116.96;105954;1277;22769;-89
2022/06/29 06:38:19;;;;;;;14.90;9.10;;;;;;;20.30;65.92;99124.09;106036;1277;25611;-90
2022/06/29 06:41:27;;;;;;;19.90;9.00;;;;;;;20.31;66.18;99124.29;106209;1276;22546;-89
2022/06/29 06:43:57;;;;;;;14.20;7.90;;;;;;;20.37;66.24;99115.70;106092;1277;22544;-93
2022/06/29 06:46:36;;;;;;;17.50;8.70;;;;;;;20.43;66.47;99126.27;106556;1277;22644;-91
2022/06/29 06:49:22;;;;;;;14.40;8.60;;;;;;;20.48;66.38;99140.13;106518;1277;26740;-90
2022/06/29 06:52:09;;;;;;;14.50;9.20;;;;;;;20.51;66.37;99150.88;106380;1277;26533;-90
2022/06/29 06:54:44;;;;;;;14.70;8.90;;;;;;;20.52;66.25;99171.02;106183;1274;24202;-90
2022/06/29 06:57:19;;;;;;;15.90;9.50;;;;;;;20.52;66.48;99182.04;106226;1277;22537;-90
2022/06/29 06:59:53;;;;;;;18.30;9.80;;;;;;;20.49;66.51;99178.41;106097;1277;23073;-88
2022/06/29 07:02:31;;;;;;;16.20;10.00;;;;;;;20.44;66.53;99168.19;106227;1276;22694;-90
2022/06/29 07:05:27;;;;;;;;;;;;;;;;;;;;;
2022/06/29 07:07:57;;;;;;;18.00;11.70;;;;;;;20.39;66.51;99156.31;106265;1276;22626;-90
2022/06/29 07:10:57;;;;;;;;;;;;;;;;;;;;;
2022/06/29 07:13:38;;;;;;;17.70;10.20;;;;;;;20.36;66.78;99119.39;106013;1276;24215;-87
2022/06/29 07:16:36;;;;;;;18.60;11.50;;;;;;;20.33;66.75;99101.66;106098;1276;22827;-90
2022/06/29 07:19:16;;;;;;;17.40;10.80;;;;;;;20.27;66.78;99098.90;105982;1278;22536;-88
2022/06/29 07:22:02;;;;;;;18.80;11.20;;;;;;;20.19;66.83;99094.50;105928;1277;22540;-93
2022/06/29 07:24:38;;;;;;;19.60;11.50;;;;;;;20.17;67.03;99094.64;106022;1277;22619;-90
2022/06/29 07:27:32;;;;;;;21.40;11.40;;;;;;;20.15;67.03;99093.31;106028;1275;23031;-89
2022/06/29 07:30:13;;;;;;;24.20;11.90;;;;;;;20.17;67.09;99097.66;106101;1274;22547;-91
2022/06/29 07:33:12;;;;;;;19.20;10.90;;;;;;;20.19;67.29;99089.52;106289;1274;22498;-89
2022/06/29 07:36:25;;;;;;;19.80;12.10;;;;;;;20.22;67.25;99089.13;106277;1275;25239;-88
2022/06/29 07:39:25;;;;;;;19.20;11.50;;;;;;;20.26;67.24;99086.52;106185;1274;24269;-91
2022/06/29 07:42:27;;;;;;;24.10;12.40;;;;;;;20.29;67.22;99092.05;106034;1275;22754;-88
2022/06/29 07:45:10;;;;;;;27.10;16.30;;;;;;;20.24;67.37;99111.00;105950;1274;24598;-89
2022/06/29 07:48:34;;;;;;;;;;;;;;;;;;;;;
2022/06/29 07:51:28;;;;;;;24.20;14.80;;;;;;;20.17;67.45;99132.30;106114;1273;22542;-91
2022/06/29 07:54:28;;;;;;;21.80;12.90;;;;;;;20.16;67.60;99131.34;106085;1274;25386;-89
2022/06/29 07:57:20;;;;;;;21.60;12.90;;;;;;;20.26;67.79;99115.81;105967;1274;22541;-90
2022/06/29 08:00:10;;;;;;;20.80;13.00;;;;;;;20.40;67.83;99113.70;105897;1274;22740;-88
2022/06/29 08:02:56;;;;;;;18.80;12.60;;;;;;;20.48;67.59;99126.35;106040;1274;25317;-90
2022/06/29 08:06:21;;;;;;;;;;;;;;;;;;;;;
2022/06/29 08:08:53;;;;;;;22.80;13.20;;;;;;;20.56;67.81;99117.00;106174;1274;22547;-91
2022/06/29 08:11:34;;;;;;;19.70;13.30;;;;;;;20.62;68.03;99127.55;105861;1274;25609;-91
2022/06/29 08:14:25;;;;;;;26.30;14.00;;;;;;;20.73;67.92;99133.70;106004;1274;25472;-88
2022/06/29 08:17:19;;;;;;;22.20;14.90;;;;;;;20.72;67.76;99137.19;106132;1274;23947;-88
2022/06/29 08:19:57;;;;;;;20.90;14.10;;;;;;;20.71;67.90;99140.38;105941;1277;22629;-92
2022/06/29 08:22:34;;;;;;;25.70;14.70;;;;;;;20.78;68.10;99126.09;105948;1276;25362;-88
2022/06/29 08:25:49;;;;;;;;;;;;;;;;;;;;;
2022/06/29 08:29:38;;;;;;;21.40;13.20;;;;;;;20.87;68.00;99126.58;106092;1274;25553;-90
2022/06/29 08:32:11;;;;;;;22.10;14.10;;;;;;;20.62;67.76;99143.63;106160;1274;22623;-90
2022/06/29 08:35:00;;;;;;;;;;;;;;;;;;;;;
2022/06/29 08:37:53;;;;;;;;;;;;;;;;;;;;;
2022/06/29 08:40:33;;;;;;;22.50;13.70;;;;;;;20.65;68.13;99142.40;105940;1274;22556;-89
2022/06/29 08:43:00;;;;;;;24.00;14.00;;;;;;;20.65;68.22;99153.19;106058;1274;22738;-87
2022/06/29 08:45:37;;;;;;;22.70;15.70;;;;;;;20.71;68.38;99161.83;106052;1274;22545;-91
2022/06/29 08:48:07;;;;;;;22.40;15.30;;;;;;;20.77;68.36;99169.45;106160;1274;22694;-90
2022/06/29 08:50:41;;;;;;;24.20;15.60;;;;;;;20.81;68.38;99178.10;106039;1274;25321;-90
2022/06/29 08:53:16;;;;;;;22.60;15.00;;;;;;;20.84;68.41;99170.48;105810;1274;22594;-89
2022/06/29 08:55:52;;;;;;;22.30;15.70;;;;;;;20.93;68.47;99157.84;105804;1274;24324;-90
2022/06/29 08:58:22;;;;;;;23.90;15.20;;;;;;;21.03;68.51;99148.00;106099;1274;22747;-89
2022/06/29 09:00:51;;;;;;;23.80;15.30;;;;;;;21.09;68.49;99139.55;105887;1274;22830;-89
2022/06/29 09:03:20;;;;;;;24.60;14.90;;;;;;;21.20;68.60;99141.89;106032;1274;24187;-89
2022/06/29 09:05:56;;;;;;;24.30;16.50;;;;;;;21.34;68.56;99143.23;106030;1274;22752;-89
2022/06/29 09:08:27;;;;;;;24.50;16.30;;;;;;;21.59;68.65;99143.55;106071;1274;25321;-90
2022/06/29 09:10:53;;;;;;;23.70;16.10;;;;;;;21.78;68.28;99148.54;106100;1274;22547;-89
2022/06/29 09:13:31;;;;;;;23.00;16.70;;;;;;;21.87;68.41;99140.08;106005;1274;24122;-89
2022/06/29 09:16:00;;;;;;;21.00;16.10;;;;;;;22.08;68.13;99134.13;106402;1273;24039;-89
2022/06/29 09:18:34;;;;;;;21.30;15.60;;;;;;;22.17;68.13;99129.55;106465;1273;23804;-91
2022/06/29 09:21:05;;;;;;;25.30;16.60;;;;;;;22.21;67.97;99130.13;106076;1274;26475;-88
2022/06/29 09:23:43;;;;;;;20.80;14.90;;;;;;;22.25;68.12;99138.29;105920;1274;25391;-89
2022/06/29 09:26:19;;;;;;;24.00;16.80;;;;;;;22.26;68.04;99132.85;106067;1274;22535;-90
2022/06/29 09:28:53;;;;;;;27.30;18.80;;;;;;;22.30;68.03;99129.23;105867;1274;24129;-90
2022/06/29 09:31:21;;;;;;;25.30;18.10;;;;;;;22.30;68.19;99126.30;106008;1273;22600;-91
2022/06/29 09:34:01;;;;;;;30.90;19.40;;;;;;;22.40;68.12;99124.92;106355;1273;25924;-88
2022/06/29 09:36:28;;;;;;;24.30;18.00;;;;;;;22.60;68.05;99128.47;106091;1274;25426;-90
2022/06/29 09:39:36;;;;;;;25.10;17.90;;;;;;;22.64;67.85;99127.47;106276;1273;22552;-93
2022/06/29 09:42:16;;;;;;;24.90;16.50;;;;;;;22.59;67.89;99123.80;106173;1274;23185;-88
2022/06/29 09:44:51;;;;;;;20.60;15.90;;;;;;;22.67;68.35;99125.98;106134;1273;24243;-88
2022/06/29 09:47:27;;;;;;;29.50;19.60;;;;;;;22.74;67.84;99123.11;106068;1274;25605;-90
2022/06/29 09:49:59;;;;;;;25.80;17.90;;;;;;;22.63;67.80;99119.23;106131;1274;22523;-92
2022/06/29 09:52:31;;;;;;;25.00;17.50;;;;;;;22.60;68.14;99119.18;106171;1274;22749;-88
2022/06/29 09:55:06;;;;;;;32.20;20.00;;;;;;;22.56;67.86;99116.77;106076;1273;25816;-91
2022/06/29 09:57:35;;;;;;;22.70;17.70;;;;;;;22.61;68.14;99108.42;105969;1274;25439;-89
2022/06/29 10:03:29;;;;;;;23.60;17.70;;;;;;;23.40;68.89;99095.39;106158;1273;22557;-89
2022/06/29 10:06:07;;;;;;;20.60;16.30;;;;;;;23.89;68.56;99091.36;105933;1274;22553;-90
2022/06/29 10:08:38;;;;;;;20.80;16.90;;;;;;;24.25;67.99;99090.56;106038;1274;25241;-88
2022/06/29 10:14:34;;;;;;;22.30;17.80;;;;;;;24.94;68.01;99080.25;105838;1274;25291;-88
2022/06/29 10:17:14;;;;;;;23.60;18.30;;;;;;;25.29;67.47;99070.42;106271;1274;22624;-87
2022/06/29 10:20:11;;;;;;;24.40;17.90;;;;;;;25.19;67.04;99076.87;106061;1274;22896;-87
2022/06/29 10:22:42;;;;;;;20.70;15.40;;;;;;;25.13;67.30;99082.40;105965;1273;22560;-88
2022/06/29 10:25:12;;;;;;;22.80;16.60;;;;;;;25.18;67.34;99079.76;105884;1273;25040;-87
2022/06/29 10:28:57;;;;;;;22.70;16.70;;;;;;;25.25;67.29;99079.25;106064;1274;24223;-88
2022/06/29 10:31:59;;;;;;;24.30;17.30;;;;;;;25.56;67.45;99072.11;106246;1273;22551;-85
2022/06/29 10:34:40;;;;;;;20.50;16.10;;;;;;;25.89;67.29;99073.04;106098;1274;22606;-87
2022/06/29 10:37:21;;;;;;;21.70;17.10;;;;;;;25.96;66.72;99069.02;106081;1274;24259;-91
2022/06/29 10:40:04;;;;;;;21.40;16.90;;;;;;;25.82;66.43;99067.95;106197;1273;22554;-84
2022/06/29 10:46:05;;;;;;;;;;;;;;;;;;;;;
2022/06/29 10:48:35;;;;;;;20.30;16.60;;;;;;;26.26;66.63;99066.56;106142;1274;22538;-86
2022/06/29 10:51:08;;;;;;;20.10;16.00;;;;;;;26.19;66.35;99070.29;106019;1277;24448;-86
2022/06/29 10:53:46;;;;;;;18.60;15.90;;;;;;;26.06;66.29;99067.38;106008;1275;24291;-89
2022/06/29 10:56:35;;;;;;;19.40;15.60;;;;;;;26.04;66.46;99067.04;106244;1274;24403;-86
2022/06/29 10:59:32;;;;;;;20.70;17.10;;;;;;;26.01;66.49;99058.44;106083;1274;22554;-87
2022/06/29 11:02:31;;;;;;;21.00;16.30;;;;;;;25.99;66.54;99052.92;106092;1274;22474;-87
2022/06/29 11:05:04;;;;;;;20.60;16.40;;;;;;;26.00;66.38;99054.78;105803;1277;25322;-88
2022/06/29 11:13:39;;;;;;;19.10;15.20;;;;;;;26.09;66.51;99047.50;105730;1276;24259;-87
2022/06/29 11:16:07;;;;;;;23.70;16.20;;;;;;;26.11;66.35;99047.00;106254;1273;24279;-88
2022/06/29 11:18:55;;;;;;;21.00;16.60;;;;;;;26.00;65.94;99043.47;106054;1274;22636;-86
2022/06/29 11:22:12;;;;;;;;;;;;;;;;;;;;;
2022/06/29 11:25:01;;;;;;;21.70;16.40;;;;;;;25.65;66.35;99039.54;105981;1274;22573;-88
2022/06/29 11:27:35;;;;;;;22.10;17.40;;;;;;;25.64;66.45;99040.57;105981;1274;23083;-88
2022/06/29 11:30:15;;;;;;;20.90;15.90;;;;;;;25.67;66.55;99033.92;105823;1274;24272;-88
2022/06/29 11:33:10;;;;;;;;;;;;;;;;;;;;;
2022/06/29 11:35:56;;;;;;;20.60;15.00;;;;;;;26.16;66.41;99028.27;106177;1273;24246;-87
2022/06/29 11:38:36;;;;;;;17.60;15.00;;;;;;;26.45;65.80;99024.33;106020;1273;22620;-90
2022/06/29 11:45:16;;;;;;;22.60;16.60;;;;;;;26.56;65.80;99036.02;105888;1273;413646;-87
2022/06/29 11:52:25;;;;;;;;;;;;;;;;;;;;;
2022/06/29 11:55:06;;;;;;;;;;;;;;;;;;;;;
2022/06/29 11:57:57;;;;;;;20.30;16.00;;;;;;;26.76;65.47;99032.73;106060;1274;23973;-89
2022/06/29 12:01:07;;;;;;;;;;;;;;;;;;;;;
2022/06/29 12:04:06;;;;;;;27.50;21.40;;;;;;;26.37;64.64;99042.73;105695;1279;24078;-87
2022/06/29 12:07:16;;;;;;;25.80;19.60;;;;;;;26.14;65.22;99041.06;105718;1279;25483;-87
2022/06/29 12:10:47;;;;;;;;;;;;;;;;;;;;;
2022/06/29 12:13:38;;;;;;;22.40;17.40;;;;;;;25.96;65.64;99046.29;104973;1285;22550;-89
2022/06/29 12:16:09;;;;;;;23.60;18.00;;;;;;;25.86;65.73;99055.61;104813;1286;22716;-87
2022/06/29 12:18:37;;;;;;;25.30;17.00;;;;;;;25.89;65.85;99051.66;105139;1286;23371;-87
2022/06/29 12:21:08;;;;;;;23.10;18.50;;;;;;;25.99;65.85;99052.04;105081;1285;23207;-90
2022/06/29 12:23:35;;;;;;;25.50;19.60;;;;;;;26.15;65.88;99051.59;105122;1286;22587;-86
2022/06/29 12:26:02;;;;;;;24.20;18.00;;;;;;;26.31;65.65;99053.02;105095;1285;22544;-89
2022/06/29 12:28:41;;;;;;;22.30;16.80;;;;;;;26.45;65.10;99056.48;105028;1285;24296;-88
2022/06/29 12:31:16;;;;;;;21.70;18.00;;;;;;;26.35;64.75;99055.29;104997;1285;22688;-91
2022/06/29 12:33:47;;;;;;;22.10;17.10;;;;;;;26.23;65.18;99059.55;105091;1285;22553;-91
2022/06/29 12:36:18;;;;;;;21.40;17.80;;;;;;;26.15;65.24;99056.05;105264;1284;22579;-89
2022/06/29 12:38:47;;;;;;;21.70;18.00;;;;;;;26.08;65.33;99051.04;105570;1284;24235;-89
2022/06/29 12:41:25;;;;;;;28.60;17.90;;;;;;;26.09;65.63;99044.34;105427;1282;25399;-89
2022/06/29 12:43:55;;;;;;;25.20;19.40;;;;;;;26.20;65.42;99036.00;105500;1282;22490;-88
2022/06/29 12:46:25;;;;;;;25.90;19.00;;;;;;;26.28;65.07;99042.90;105390;1282;22547;-90
2022/06/29 12:48:52;;;;;;;27.90;21.70;;;;;;;26.29;64.98;99043.88;105386;1282;22754;-89
2022/06/29 12:51:25;;;;;;;22.30;17.50;;;;;;;26.20;65.00;99034.31;105979;1273;22560;-86
2022/06/29 12:54:03;;;;;;;22.70;16.70;;;;;;;26.21;65.07;99025.31;105833;1274;22537;-87
2022/06/29 12:56:36;;;;;;;21.40;16.40;;;;;;;26.24;65.07;99027.16;105884;1274;22816;-87
2022/06/29 12:59:03;;;;;;;23.30;16.60;;;;;;;26.30;65.25;99028.79;106339;1274;25358;-88
2022/06/29 13:01:41;;;;;;;23.60;17.30;;;;;;;26.31;65.06;99025.46;106092;1274;22557;-89